Castres-Mazamet Airport

LFCK · Occitanie, França

2 de outubro de 2022

Hora Código Clima Temp. Visibilidade Tecto Vento METAR/SPECI
10:30
V
17 °C 10 km+ - Var Var 1 kt METAR LFCK 020830Z AUTO VRB01KT CAVOK 17/14 Q1029 NOSIG
10:00
V
16 °C 10 km+ - 360° 360° 2 kt METAR LFCK 020800Z AUTO 36002KT CAVOK 16/14 Q1029 NOSIG
09:30
V
15 °C 10 km+ - Var 000° 0 kt METAR LFCK 020730Z AUTO 00000KT CAVOK 15/14 Q1028 NOSIG
09:00
M
15 °C 10 km+ 2.200 ft Var Var 1 kt METAR LFCK 020700Z AUTO VRB01KT 9999 BKN022 15/14 Q1028 NOSIG
08:30
V
13 °C 10 km+ - 080° 080° 3 kt METAR LFCK 020630Z AUTO 08003KT 9999 FEW021 13/12 Q1028 NOSIG
08:00
V
13 °C 10 km+ - Var Var 1 kt METAR LFCK 020600Z AUTO VRB01KT 9999 SCT023 13/12 Q1028 TEMPO 3000 BR
07:30
M
13 °C 10 km+ 2.300 ft 150° 150° 3 kt METAR LFCK 020530Z AUTO 15003KT 9999 OVC023 13/13 Q1028
07:00
M
13 °C 10 km+ 2.100 ft Var Var 2 kt METAR LFCK 020500Z AUTO VRB02KT 9999 BKN021 13/13 Q1027
06:30
V
13 °C 10 km+ - 140° 140° 4 kt METAR LFCK 020430Z AUTO 14004KT 9999 FEW020 13/13 Q1027
06:00
M
13 °C 10 km+ 2.200 ft Var Var 1 kt METAR LFCK 020400Z AUTO VRB01KT 9999 BKN022 13/12 Q1028
05:30
M
13 °C 10 km+ 2.300 ft Var 000° 0 kt METAR LFCK 020330Z AUTO 00000KT 9999 OVC023 13/12 Q1027
05:00
M
13 °C 10 km+ 2.000 ft 280° 280° 1 kt METAR LFCK 020300Z AUTO 28001KT 9999 OVC020 13/13 Q1027
04:30
M
13 °C 10 km+ 2.100 ft Var 000° 0 kt METAR LFCK 020230Z AUTO 00000KT 9999 BKN021 13/13 Q1027
04:00
V
13 °C 10 km+ - Var 000° 0 kt METAR LFCK 020200Z AUTO 00000KT CAVOK 13/12 Q1027
03:30
V
13 °C 10 km+ - 290° 290° 1 kt METAR LFCK 020130Z AUTO 29001KT CAVOK 13/12 Q1028
03:00
V
13 °C 10 km+ - Var Var 2 kt METAR LFCK 020100Z AUTO VRB02KT CAVOK 13/13 Q1028
02:30
V
14 °C 10 km+ - Var Var 2 kt METAR LFCK 020030Z AUTO VRB02KT CAVOK 14/13 Q1028
02:00
V
16 °C 10 km+ 3.700 ft Var 000° 0 kt METAR LFCK 020000Z AUTO 00000KT 9999 BKN037 16/14 Q1028
01:30
V
16 °C 10 km+ - Var Var 2 kt METAR LFCK 012330Z AUTO VRB02KT 9999 FEW040 16/14 Q1028
01:00
V
18 °C 10 km+ 3.900 ft 260° 260° 3 kt METAR LFCK 012300Z AUTO 26003KT 9999 BKN039 BKN047 18/14 Q1028
00:30
V
18 °C 10 km+ 3.500 ft 250° 250° 4 kt METAR LFCK 012230Z AUTO 25004KT 9999 OVC035 18/14 Q1028
00:00
V
18 °C 10 km+ 3.600 ft 280° 280° 5 kt METAR LFCK 012200Z AUTO 28005KT 9999 OVC036 18/14 Q1028

1 de outubro de 2022

Hora Código Clima Temp. Visibilidade Tecto Vento METAR/SPECI
23:30
V
19 °C 10 km+ 3.500 ft 270° 270° 5 kt METAR LFCK 012130Z AUTO 27005KT 9999 BKN035 OVC042 19/14 Q1028
23:00
V
19 °C 10 km+ 4.500 ft 280° 280° 4 kt METAR LFCK 012100Z AUTO 28004KT 9999 OVC045 19/14 Q1028 TEMPO 4000 -RADZ BKN013
22:30
V
19 °C 10 km+ 4.500 ft 270° 270° 5 kt METAR LFCK 012030Z AUTO 27005KT 9999 OVC045 19/14 Q1028 TEMPO 4000 -RADZ BKN013
22:00
V
19 °C 10 km+ 4.800 ft 280° 280° 5 kt METAR LFCK 012000Z AUTO 28005KT 9999 FEW039 OVC048 19/15 Q1028 TEMPO 4000 -RADZ BKN013
21:30
V
19 °C 10 km+ 4.700 ft 290° 290° 3 kt METAR LFCK 011930Z AUTO 29003KT 260V320 9999 OVC047 19/14 Q1027 TEMPO 4000 -RADZ BKN013
21:00
V
19 °C 10 km+ - 320° 320° 4 kt METAR LFCK 011900Z AUTO 32004KT CAVOK 19/14 Q1027 TEMPO 4000 -RADZ BKN013
20:30
V
20 °C 10 km+ 5.200 ft 320° 320° 5 kt METAR LFCK 011830Z AUTO 32005KT 9999 FEW041 OVC052 20/14 Q1027 TEMPO 4000 -RADZ BKN013
20:00
V
20 °C 10 km+ 5.600 ft 320° 320° 7 kt METAR LFCK 011800Z AUTO 32007KT 9999 FEW044 OVC056 20/14 Q1026 TEMPO 4000 -RADZ BKN013
19:30
V
21 °C 10 km+ 5.400 ft 320° 320° 8 kt METAR LFCK 011730Z AUTO 32008KT 9999 FEW044 BKN054 OVC072 21/14 Q1026 BECMG BKN008 OVC020
19:00
V
21 °C 10 km+ 5.000 ft 310° 310° 9 kt METAR LFCK 011700Z AUTO 31009KT 9999 SCT043 BKN050 OVC074 21/14 Q1026 BECMG BKN008 OVC020
18:30
V
22 °C 10 km+ 5.600 ft 290° 290° 10 kt METAR LFCK 011630Z AUTO 29010KT 9999 FEW046 BKN056 OVC068 22/13 Q1025 BECMG BKN008 OVC020
18:00
V
22 °C 10 km+ 4.900 ft 280° 280° 14 kt METAR LFCK 011600Z AUTO 28014KT 9999 SCT042 BKN049 BKN058 22/13 Q1025 BECMG BKN008 OVC020
17:30
V
23 °C 10 km+ 4.800 ft 290° 290° 13 kt METAR LFCK 011530Z AUTO 29013KT 9999 SCT040 BKN048 BKN056 23/14 Q1025 BECMG BKN008 OVC020
17:00
V
22 °C 10 km+ 4.300 ft 290° 290° 14 kt METAR LFCK 011500Z AUTO 29014KT 9999 BKN043 BKN049 22/13 Q1025 NOSIG
16:30
V
21 °C 10 km+ 4.500 ft 300° 300° 12 kt METAR LFCK 011430Z AUTO 30012KT 9999 FEW038 BKN045 21/13 Q1024 TEMPO 4000 -RADZ BKN012
16:00
V
21 °C 10 km+ 4.100 ft 290° 290° 11 kt METAR LFCK 011400Z AUTO 29011KT 260V320 9999 BKN041 21/13 Q1025 NOSIG
15:30
V
21 °C 10 km+ 3.700 ft 310° 310° 13 kt METAR LFCK 011330Z AUTO 31013KT 9999 BKN037 21/13 Q1024 NOSIG
15:00
V
20 °C 10 km+ 3.700 ft 290° 290° 9 kt METAR LFCK 011300Z AUTO 29009KT 9999 OVC037 20/12 Q1024 NOSIG
14:30
V
19 °C 10 km+ 3.500 ft 310° 310° 6 kt METAR LFCK 011230Z AUTO 31006KT 270V350 9999 OVC035 19/11 Q1025 NOSIG
14:00
V
19 °C 10 km+ 3.500 ft 280° 280° 8 kt METAR LFCK 011200Z AUTO 28008KT 9999 OVC035 19/11 Q1025 NOSIG
13:30
V
19 °C 10 km+ 4.000 ft 270° 270° 11 kt METAR LFCK 011130Z AUTO 27011KT 9999 OVC040 19/11 Q1025 NOSIG
13:00
V
18 °C 10 km+ 4.000 ft 270° 270° 10 kt METAR LFCK 011100Z AUTO 27010KT 9999 OVC040 18/11 Q1025 NOSIG
12:30
V
17 °C 10 km+ 4.900 ft 300° 300° 7 kt METAR LFCK 011030Z AUTO 30007KT 250V330 9999 OVC049 17/10 Q1025 NOSIG
12:00
V
17 °C 10 km+ - 300° 300° 7 kt METAR LFCK 011000Z AUTO 30007KT CAVOK 17/10 Q1025 NOSIG
11:30
V
16 °C 10 km+ - 300° 300° 5 kt METAR LFCK 010930Z AUTO 30005KT 250V330 CAVOK 16/10 Q1024 NOSIG
11:00
V
15 °C 10 km+ - 300° 300° 4 kt METAR LFCK 010900Z AUTO 30004KT 260V360 CAVOK 15/10 Q1025 NOSIG
10:30
V
14 °C 10 km+ - 030° 030° 3 kt METAR LFCK 010830Z AUTO 03003KT CAVOK 14/10 Q1024 NOSIG
10:00
V
13 °C 10 km+ - Var Var 3 kt METAR LFCK 010800Z AUTO VRB03KT CAVOK 13/10 Q1024 NOSIG
09:30
V
11 °C 10 km+ - Var Var 2 kt METAR LFCK 010730Z AUTO VRB02KT CAVOK 11/09 Q1024 NOSIG
09:00
V
10 °C 10 km+ 9.800 ft 150° 150° 2 kt METAR LFCK 010700Z AUTO 15002KT 9999 SCT019 BKN098 10/09 Q1023 NOSIG
08:30
V
9 °C 10 km+ - 110° 110° 2 kt METAR LFCK 010630Z AUTO 11002KT CAVOK 09/09 Q1023 NOSIG
08:00
V
8 °C 10 km+ - Var 000° 0 kt METAR LFCK 010600Z AUTO 00000KT CAVOK 08/08 Q1023 NOSIG
07:30
V
8 °C 10 km+ - Var 000° 0 kt METAR LFCK 010530Z AUTO 00000KT CAVOK 08/08 Q1023 NOSIG
07:00
V
8 °C 10 km+ - Var 000° 0 kt METAR LFCK 010500Z AUTO 00000KT CAVOK 08/07 Q1022
06:30
V
8 °C 10 km+ 10.000 ft 150° 150° 3 kt METAR LFCK 010430Z AUTO 15003KT 9999 FEW049 BKN100 OVC120 08/08 Q1022
06:00
V
8 °C 10 km+ - 090° 090° 4 kt METAR LFCK 010400Z AUTO 09004KT 9999 FEW048 08/07 Q1022
05:30
V
8 °C 10 km+ - 050° 050° 4 kt METAR LFCK 010330Z AUTO 05004KT CAVOK 08/07 Q1022
05:00
V
8 °C 10 km+ - 040° 040° 4 kt METAR LFCK 010300Z AUTO 04004KT CAVOK 08/07 Q1022
04:30
V
9 °C 10 km+ - 050° 050° 3 kt METAR LFCK 010230Z AUTO 05003KT CAVOK 09/07 Q1021
04:00
V
9 °C 10 km+ 4.000 ft Var Var 3 kt METAR LFCK 010200Z AUTO VRB03KT 9999 BKN040 09/08 Q1022
03:30
V
9 °C 10 km+ 4.100 ft 030° 030° 3 kt METAR LFCK 010130Z AUTO 03003KT 340V060 9999 OVC041 09/07 Q1021
03:00
V
8 °C 10 km+ - Var Var 3 kt METAR LFCK 010100Z AUTO VRB03KT 9999 SCT045 08/07 Q1021
02:30
V
8 °C 10 km+ - 040° 040° 3 kt METAR LFCK 010030Z AUTO 04003KT 9999 FEW048 SCT054 08/07 Q1021
02:00
V
8 °C 10 km+ - Var Var 2 kt METAR LFCK 010000Z AUTO VRB02KT CAVOK 08/07 Q1021
01:30
V
8 °C 10 km+ - Var Var 2 kt METAR LFCK 302330Z AUTO VRB02KT CAVOK 08/07 Q1021
01:00
V
9 °C 10 km+ - 010° 010° 3 kt METAR LFCK 302300Z AUTO 01003KT 340V040 CAVOK 09/07 Q1021
00:30
V
8 °C 10 km+ - Var Var 2 kt METAR LFCK 302230Z AUTO VRB02KT CAVOK 08/07 Q1020
00:00
V
8 °C 10 km+ - 040° 040° 4 kt METAR LFCK 302200Z AUTO 04004KT CAVOK 08/07 Q1020

30 de setembro de 2022

Hora Código Clima Temp. Visibilidade Tecto Vento METAR/SPECI
23:30
V
9 °C 10 km+ - 020° 020° 3 kt METAR LFCK 302130Z AUTO 02003KT CAVOK 09/08 Q1020
23:00
V
10 °C 10 km+ - 350° 350° 2 kt METAR LFCK 302100Z AUTO 35002KT CAVOK 10/07 Q1020 NOSIG
22:30
V
11 °C 10 km+ - Var Var 2 kt METAR LFCK 302030Z AUTO VRB02KT CAVOK 11/07 Q1019 NOSIG
22:00
V
11 °C 10 km+ - Var Var 2 kt METAR LFCK 302000Z AUTO VRB02KT CAVOK 11/07 Q1019 NOSIG
21:30
V
13 °C 10 km+ - 290° 290° 4 kt METAR LFCK 301930Z AUTO 29004KT 270V340 CAVOK 13/07 Q1019 NOSIG
21:00
V
14 °C 10 km+ - 300° 300° 6 kt METAR LFCK 301900Z AUTO 30006KT CAVOK 14/08 Q1018 NOSIG
20:30
V
14 °C 10 km+ - 300° 300° 8 kt METAR LFCK 301830Z AUTO 30008KT CAVOK 14/08 Q1018 NOSIG
20:00
V
15 °C 10 km+ - 310° 310° 8 kt METAR LFCK 301800Z AUTO 31008KT CAVOK 15/07 Q1018 NOSIG
19:30
V
15 °C 10 km+ - 310° 310° 11 kt METAR LFCK 301730Z AUTO 31011KT CAVOK 15/07 Q1017 NOSIG
19:00
V
16 °C 10 km+ - 310° 310° 13 kt METAR LFCK 301700Z AUTO 31013KT 9999 FEW047 SCT074 16/07 Q1016 NOSIG
18:30
V
16 °C 10 km+ 7.400 ft 300° 300° 14 kt METAR LFCK 301630Z AUTO 30014KT 9999 FEW048 SCT058 BKN074 16/07 Q1016 NOSIG
18:00
V
16 °C 10 km+ - 310° 310° 15 kt METAR LFCK 301600Z AUTO 31015KT 9999 FEW049 16/07 Q1015 TEMPO 30016G26KT
17:30
V
17 °C 10 km+ 7.000 ft 310° 310° 17 kt METAR LFCK 301530Z AUTO 31017KT 280V340 9999 SCT049 BKN070 BKN080 17/07 Q1015 TEMPO 30016G26KT
17:00
V
18 °C 10 km+ - 300° 300° 16 kt METAR LFCK 301500Z AUTO 30016KT CAVOK 18/07 Q1015 TEMPO 30016G26KT
16:30
V
17 °C 10 km+ 6.000 ft 310° 310° 19 kt METAR LFCK 301430Z AUTO 31019KT 9999 FEW043 BKN060 BKN076 17/07 Q1015 NOSIG
16:00
V
17 °C 10 km+ 8.400 ft 300° 300° 13 kt METAR LFCK 301400Z AUTO 30013KT 9999 FEW042/// BKN084/// ///TCU 17/08 Q1015 BECMG SCT030
15:30
V
16 °C 10 km+ 8.200 ft 290° 290° 18 kt METAR LFCK 301330Z AUTO 29018KT 9999 FEW035 BKN082 16/08 Q1015 NOSIG
15:00
V
16 °C 10 km+ 3.800 ft 290° 290° 17 kt METAR LFCK 301300Z AUTO 29017KT 9999 SCT032 BKN038 16/08 Q1015 NOSIG
14:30
V
16 °C 10 km+ 3.000 ft 290° 290° 15 kt METAR LFCK 301230Z AUTO 29015KT 9999 BKN030 BKN040 BKN052 16/09 Q1015 NOSIG
14:00
V
15 °C 10 km+ 3.500 ft 290° 290° 14 kt METAR LFCK 301200Z AUTO 29014KT 9999 SCT029 BKN035 BKN042 15/09 Q1015 NOSIG
13:30
M
15 °C 10 km+ 2.200 ft 290° 290° 13 kt METAR LFCK 301130Z AUTO 29013KT 9999 BKN022 BKN028 BKN033 15/09 Q1015 NOSIG
13:00
M
14 °C 10 km+ 1.900 ft 280° 280° 10 kt METAR LFCK 301100Z AUTO 28010KT 9999 BKN019 OVC028 14/10 Q1015 TEMPO BKN014
12:30
M
13 °C 10 km+ 1.600 ft 300° 300° 9 kt METAR LFCK 301030Z AUTO 30009KT 9999 BKN016 OVC022 13/09 Q1015 TEMPO BKN014
12:00
M
12 °C 10 km+ 1.400 ft 290° 290° 9 kt METAR LFCK 301000Z AUTO 29009KT 9999 BKN014 BKN022 OVC030 12/11 Q1014 NOSIG
11:30
M
12 °C 10 km+ 1.000 ft 300° 300° 9 kt METAR LFCK 300930Z AUTO 30009KT 270V330 9999 BKN010 OVC016 12/10 Q1014 NOSIG
11:00
I
11 °C 10 km+ 800 ft 290° 290° 10 kt METAR LFCK 300900Z AUTO 29010KT 9999 BKN008 OVC014 11/10 Q1014 TEMPO BKN006 SCT017TCU
Dados mais antigos

Nós e terceiros acompanhamos seu comportamento na internet em nosso site com cookies. Se você continuar, nós assumimos que você concorda com nossa política de cookies. Saiba mais